Time;durP1;ratioP1;P1;durP2;ratioP2;P2;SDS_P1;SDS_P2;PMS_P1;PMS_P2;Temp;Humidity;BMP_temperature;BMP_pressure;BME280_temperature;BME280_humidity;BME280_pressure;Samples;Min_cycle;Max_cycle;Signal;HPM_P1;HPM_P2
2021/11/13 00:00:18;;;;;;;13.90;9.02;;;;;;;;;;5113736;28;20094;-71
2021/11/13 00:02:44;;;;;;;15.48;9.10;;;;;;;;;;5114131;28;20096;-69
2021/11/13 00:05:10;;;;;;;16.45;9.02;;;;;;;;;;5113625;28;20370;-66
2021/11/13 00:07:36;;;;;;;14.68;8.40;;;;;;;;;;5114067;28;20485;-68
2021/11/13 00:10:03;;;;;;;14.25;8.95;;;;;;;;;;5095925;28;20059;-68
2021/11/13 00:12:29;;;;;;;13.85;9.07;;;;;;;;;;5113583;28;20032;-67
2021/11/13 00:14:55;;;;;;;14.45;9.50;;;;;;;;;;5113664;28;20065;-71
2021/11/13 00:17:21;;;;;;;17.02;9.05;;;;;;;;;;5095323;28;20382;-72
2021/11/13 00:19:47;;;;;;;18.20;9.13;;;;;;;;;;5120140;28;20134;-68
2021/11/13 00:22:13;;;;;;;15.85;8.50;;;;;;;;;;5134081;28;20020;-66
2021/11/13 00:24:39;;;;;;;16.15;9.23;;;;;;;;;;5134278;28;20038;-68
2021/11/13 00:27:05;;;;;;;13.68;9.23;;;;;;;;;;5134171;28;20019;-69
2021/11/13 00:29:31;;;;;;;13.75;8.68;;;;;;;;;;5134462;28;20098;-66
2021/11/13 00:31:57;;;;;;;14.55;8.63;;;;;;;;;;5133783;28;20019;-72
2021/11/13 00:34:24;;;;;;;13.82;9.00;;;;;;;;;;5134058;27;20022;-66
2021/11/13 00:36:50;;;;;;;14.35;9.23;;;;;;;;;;5137969;27;20075;-68
2021/11/13 00:39:16;;;;;;;15.23;8.40;;;;;;;;;;5137899;27;20116;-68
2021/11/13 00:41:42;;;;;;;16.80;9.20;;;;;;;;;;5137876;27;20532;-67
2021/11/13 00:44:09;;;;;;;15.43;8.85;;;;;;;;;;5137791;27;20023;-72
2021/11/13 00:46:35;;;;;;;15.30;8.93;;;;;;;;;;5137675;27;20019;-68
2021/11/13 00:49:01;;;;;;;14.82;8.55;;;;;;;;;;5137801;27;20038;-73
2021/11/13 00:51:27;;;;;;;14.63;8.48;;;;;;;;;;5137723;27;20047;-71
2021/11/13 00:53:53;;;;;;;15.75;8.68;;;;;;;;;;5119394;27;20036;-71
2021/11/13 00:56:19;;;;;;;16.50;8.52;;;;;;;;;;5119012;27;20108;-73
2021/11/13 00:58:47;;;;;;;14.82;8.10;;;;;;;;;;5137169;27;20035;-66
2021/11/13 01:01:13;;;;;;;13.73;7.97;;;;;;;;;;5068315;27;20022;-72
2021/11/13 01:03:39;;;;;;;13.35;7.90;;;;;;;;;;5033409;28;20040;-70
2021/11/13 01:06:05;;;;;;;13.30;8.38;;;;;;;;;;5033341;28;20076;-69
2021/11/13 01:08:31;;;;;;;13.88;7.72;;;;;;;;;;5101728;28;20116;-70
2021/11/13 01:10:57;;;;;;;11.07;7.70;;;;;;;;;;5033489;28;20025;-69
2021/11/13 01:13:23;;;;;;;11.63;7.45;;;;;;;;;;5033397;27;20104;-74
2021/11/13 01:15:49;;;;;;;12.30;7.22;;;;;;;;;;5075633;28;20031;-73
2021/11/13 01:18:16;;;;;;;13.68;7.60;;;;;;;;;;5116570;28;20088;-70
2021/11/13 01:20:42;;;;;;;14.32;7.53;;;;;;;;;;5131000;27;20371;-68
2021/11/13 01:23:08;;;;;;;10.55;6.68;;;;;;;;;;5137207;27;20028;-69
2021/11/13 01:25:34;;;;;;;11.85;7.32;;;;;;;;;;5136696;27;20453;-67
2021/11/13 01:28:01;;;;;;;10.65;6.32;;;;;;;;;;5136873;27;20031;-67
2021/11/13 01:30:27;;;;;;;13.23;6.80;;;;;;;;;;5136589;27;20027;-71
2021/11/13 01:32:53;;;;;;;11.82;6.10;;;;;;;;;;5136322;27;20027;-70
2021/11/13 01:35:22;;;;;;;11.63;6.40;;;;;;;;;;5136409;27;20079;-69
2021/11/13 01:37:48;;;;;;;10.65;6.40;;;;;;;;;;5136411;27;20023;-67
2021/11/13 01:40:15;;;;;;;11.50;6.63;;;;;;;;;;5136459;27;20436;-70
2021/11/13 01:42:41;;;;;;;12.63;6.30;;;;;;;;;;5136218;27;20038;-66
2021/11/13 01:45:09;;;;;;;9.80;5.88;;;;;;;;;;5136459;27;20031;-70
2021/11/13 01:47:35;;;;;;;11.45;6.05;;;;;;;;;;5134884;27;20055;-71
2021/11/13 01:50:01;;;;;;;7.63;5.47;;;;;;;;;;5117720;27;20031;-67
2021/11/13 01:52:27;;;;;;;8.00;5.20;;;;;;;;;;5136298;27;20072;-68
2021/11/13 01:54:53;;;;;;;10.30;5.43;;;;;;;;;;5136160;27;20027;-67
2021/11/13 01:57:21;;;;;;;11.55;6.15;;;;;;;;;;5136036;27;20174;-67
2021/11/13 01:59:48;;;;;;;8.23;4.93;;;;;;;;;;5137372;27;20031;-70
2021/11/13 02:02:15;;;;;;;9.40;5.47;;;;;;;;;;5156733;27;20019;-71
2021/11/13 02:04:41;;;;;;;9.00;5.25;;;;;;;;;;5138286;27;20075;-74
2021/11/13 02:07:07;;;;;;;9.05;4.55;;;;;;;;;;5157050;27;20019;-67
2021/11/13 02:09:33;;;;;;;7.97;4.70;;;;;;;;;;5138163;27;20072;-66
2021/11/13 02:11:59;;;;;;;7.72;4.40;;;;;;;;;;5156966;27;20373;-71
2021/11/13 02:14:27;;;;;;;8.13;4.70;;;;;;;;;;5138593;27;20446;-67
2021/11/13 02:16:53;;;;;;;7.57;5.03;;;;;;;;;;5137124;27;20023;-73
2021/11/13 02:19:19;;;;;;;7.80;4.28;;;;;;;;;;5135459;27;20054;-69
2021/11/13 02:21:45;;;;;;;7.13;4.00;;;;;;;;;;5135599;27;20019;-71
2021/11/13 02:24:11;;;;;;;8.13;3.97;;;;;;;;;;5117053;27;20411;-71
2021/11/13 02:26:38;;;;;;;9.52;3.70;;;;;;;;;;5135586;27;20094;-67
2021/11/13 02:29:05;;;;;;;6.38;3.30;;;;;;;;;;5135420;27;20023;-71
2021/11/13 02:31:35;;;;;;;8.15;3.80;;;;;;;;;;5135386;27;20030;-66
2021/11/13 02:34:02;;;;;;;6.97;3.28;;;;;;;;;;5135390;27;20034;-67
2021/11/13 02:36:28;;;;;;;7.05;3.58;;;;;;;;;;5116838;27;20027;-69
2021/11/13 02:38:56;;;;;;;9.30;3.38;;;;;;;;;;5135318;27;20038;-72
2021/11/13 02:41:23;;;;;;;9.85;3.40;;;;;;;;;;5117094;27;20015;-71
2021/11/13 02:43:49;;;;;;;6.88;3.15;;;;;;;;;;5135110;27;20459;-68
2021/11/13 02:46:16;;;;;;;7.50;2.90;;;;;;;;;;5134951;27;20023;-67
2021/11/13 02:48:43;;;;;;;9.82;3.13;;;;;;;;;;5116812;27;20027;-68
2021/11/13 02:51:10;;;;;;;6.97;2.80;;;;;;;;;;5135143;27;20080;-67
2021/11/13 02:53:36;;;;;;;8.77;3.35;;;;;;;;;;5134990;27;20027;-68
2021/11/13 02:56:06;;;;;;;10.48;3.47;;;;;;;;;;5135004;27;20031;-71
2021/11/13 02:58:33;;;;;;;9.05;3.15;;;;;;;;;;5134292;27;20031;-72
2021/11/13 03:01:03;;;;;;;7.80;3.05;;;;;;;;;;5127847;27;20050;-67
2021/11/13 03:03:29;;;;;;;7.60;2.70;;;;;;;;;;5155343;27;20054;-66
2021/11/13 03:05:56;;;;;;;8.63;2.60;;;;;;;;;;5155291;27;20058;-67
2021/11/13 03:08:26;;;;;;;6.13;2.35;;;;;;;;;;5155336;27;20037;-69
2021/11/13 03:10:53;;;;;;;8.77;2.30;;;;;;;;;;5155337;27;20369;-67
2021/11/13 03:13:19;;;;;;;5.55;2.38;;;;;;;;;;5155322;27;20366;-67
2021/11/13 03:15:47;;;;;;;5.63;2.10;;;;;;;;;;5155240;27;20102;-73
2021/11/13 03:18:13;;;;;;;11.13;2.58;;;;;;;;;;5155160;27;20088;-67
2021/11/13 03:20:38;;;;;;;11.07;2.10;;;;;;;;;;5154884;27;20557;-67
2021/11/13 03:23:04;;;;;;;8.38;2.65;;;;;;;;;;5155449;27;20049;-71
2021/11/13 03:25:37;;;;;;;13.45;2.72;;;;;;;;;;5155239;27;20023;-66
2021/11/13 03:28:05;;;;;;;10.75;2.35;;;;;;;;;;5155518;27;20030;-70
2021/11/13 03:30:31;;;;;;;11.05;2.60;;;;;;;;;;5155663;27;20423;-71
2021/11/13 03:32:57;;;;;;;5.97;2.17;;;;;;;;;;5133176;27;20026;-67
2021/11/13 03:35:30;;;;;;;8.25;2.10;;;;;;;;;;5134865;27;20032;-68
2021/11/13 03:37:58;;;;;;;5.68;1.90;;;;;;;;;;5134462;27;20114;-65
2021/11/13 03:40:24;;;;;;;9.00;2.53;;;;;;;;;;5134374;27;20079;-66
2021/11/13 03:42:50;;;;;;;9.80;2.28;;;;;;;;;;5133092;27;20019;-69
2021/11/13 03:45:16;;;;;;;8.00;2.03;;;;;;;;;;5134211;27;20024;-69
2021/11/13 03:47:42;;;;;;;9.32;2.20;;;;;;;;;;5134715;27;20042;-69
2021/11/13 03:50:08;;;;;;;9.32;2.10;;;;;;;;;;5134077;27;20029;-66
2021/11/13 03:52:34;;;;;;;5.50;1.83;;;;;;;;;;5132812;27;20099;-71
2021/11/13 03:55:00;;;;;;;11.77;2.03;;;;;;;;;;5133622;27;20038;-66
2021/11/13 03:57:26;;;;;;;7.20;1.80;;;;;;;;;;5134181;27;20023;-72
2021/11/13 03:59:54;;;;;;;5.63;1.60;;;;;;;;;;5136283;27;20102;-68
2021/11/13 04:02:20;;;;;;;4.72;1.42;;;;;;;;;;5154912;27;20489;-71
2021/11/13 04:04:46;;;;;;;11.13;2.33;;;;;;;;;;5154963;27;20022;-73
2021/11/13 04:07:12;;;;;;;5.55;1.45;;;;;;;;;;5154969;27;20422;-67
2021/11/13 04:09:39;;;;;;;6.97;1.90;;;;;;;;;;5155681;27;20462;-69
2021/11/13 04:12:06;;;;;;;9.10;1.88;;;;;;;;;;5159437;27;20023;-68
2021/11/13 04:14:36;;;;;;;6.18;1.55;;;;;;;;;;5159246;27;20542;-69
2021/11/13 04:17:02;;;;;;;9.75;2.05;;;;;;;;;;5159219;27;20049;-68
2021/11/13 04:19:28;;;;;;;7.50;1.85;;;;;;;;;;5158837;27;20058;-73
2021/11/13 04:21:54;;;;;;;7.30;1.85;;;;;;;;;;5140062;27;20018;-72
2021/11/13 04:24:21;;;;;;;7.72;1.85;;;;;;;;;;5140086;27;20458;-67
2021/11/13 04:26:47;;;;;;;5.32;1.65;;;;;;;;;;5158755;27;20050;-70
2021/11/13 04:29:14;;;;;;;9.02;1.60;;;;;;;;;;5158891;27;20015;-67
2021/11/13 04:31:40;;;;;;;6.53;1.63;;;;;;;;;;5139891;27;20482;-68
2021/11/13 04:34:13;;;;;;;6.13;1.65;;;;;;;;;;5158644;27;20018;-72
2021/11/13 04:36:41;;;;;;;5.07;1.38;;;;;;;;;;5139835;27;20029;-69
2021/11/13 04:39:09;;;;;;;7.50;1.65;;;;;;;;;;5158112;27;20046;-68
2021/11/13 04:41:35;;;;;;;4.47;1.27;;;;;;;;;;5158239;27;20030;-69
2021/11/13 04:44:01;;;;;;;8.07;1.65;;;;;;;;;;5158336;27;20037;-71
2021/11/13 04:46:27;;;;;;;10.30;1.92;;;;;;;;;;5139890;27;20015;-72
2021/11/13 04:48:53;;;;;;;5.38;1.52;;;;;;;;;;5158924;27;20023;-66
2021/11/13 04:51:19;;;;;;;5.25;1.48;;;;;;;;;;5158781;27;20018;-73
2021/11/13 04:53:45;;;;;;;6.93;1.60;;;;;;;;;;5158839;27;20026;-74
2021/11/13 04:56:11;;;;;;;7.13;1.80;;;;;;;;;;5157984;27;20019;-68
2021/11/13 04:58:37;;;;;;;5.22;1.30;;;;;;;;;;5157573;27;20489;-67
2021/11/13 05:01:04;;;;;;;5.60;1.50;;;;;;;;;;5157946;27;20755;-71
2021/11/13 05:03:30;;;;;;;6.68;1.42;;;;;;;;;;5158009;27;20102;-69
2021/11/13 05:05:57;;;;;;;5.18;1.25;;;;;;;;;;5157561;27;20056;-70
2021/11/13 05:08:22;;;;;;;5.78;1.45;;;;;;;;;;5158108;27;20030;-71
2021/11/13 05:10:49;;;;;;;5.80;1.50;;;;;;;;;;5138935;27;20023;-70
2021/11/13 05:13:16;;;;;;;6.20;1.42;;;;;;;;;;5139091;27;20080;-67
2021/11/13 05:15:43;;;;;;;4.80;1.13;;;;;;;;;;5147691;27;20022;-69
2021/11/13 05:18:09;;;;;;;6.22;1.50;;;;;;;;;;5136911;27;20038;-71
2021/11/13 05:20:35;;;;;;;8.23;1.30;;;;;;;;;;5136370;27;20046;-67
2021/11/13 05:23:01;;;;;;;6.03;1.55;;;;;;;;;;5136681;27;20031;-67
2021/11/13 05:25:27;;;;;;;7.35;1.50;;;;;;;;;;5118036;27;20378;-71
2021/11/13 05:27:53;;;;;;;4.22;1.05;;;;;;;;;;5118468;27;20129;-68
2021/11/13 05:30:20;;;;;;;3.25;1.35;;;;;;;;;;5136886;27;20031;-72
2021/11/13 05:32:46;;;;;;;5.05;1.27;;;;;;;;;;5136281;27;20049;-67
2021/11/13 05:35:12;;;;;;;4.60;1.33;;;;;;;;;;5136459;27;20027;-67
2021/11/13 05:37:39;;;;;;;3.53;1.17;;;;;;;;;;5136336;27;20457;-66
2021/11/13 05:40:06;;;;;;;5.20;1.27;;;;;;;;;;5117661;27;20110;-70
2021/11/13 05:42:32;;;;;;;4.85;1.60;;;;;;;;;;5136406;27;20027;-69
2021/11/13 05:44:58;;;;;;;4.93;1.20;;;;;;;;;;5136194;27;20019;-66
2021/11/13 05:47:25;;;;;;;6.00;1.00;;;;;;;;;;5117806;27;20773;-72
2021/11/13 05:49:51;;;;;;;7.38;1.20;;;;;;;;;;5136203;27;20027;-68
2021/11/13 05:52:18;;;;;;;5.78;1.27;;;;;;;;;;5136235;27;20074;-69
2021/11/13 05:54:44;;;;;;;5.32;1.42;;;;;;;;;;5136224;27;20058;-70
2021/11/13 05:57:10;;;;;;;3.35;1.00;;;;;;;;;;5117522;27;20542;-72
2021/11/13 05:59:36;;;;;;;9.48;1.27;;;;;;;;;;5136041;27;20043;-69
2021/11/13 06:02:02;;;;;;;2.15;0.90;;;;;;;;;;5156560;27;20037;-67
2021/11/13 06:04:28;;;;;;;5.38;1.20;;;;;;;;;;5158285;27;20037;-70
2021/11/13 06:06:54;;;;;;;3.90;1.08;;;;;;;;;;5156918;27;20042;-72
2021/11/13 06:09:20;;;;;;;2.78;1.00;;;;;;;;;;5156807;27;20027;-66
2021/11/13 06:11:46;;;;;;;5.25;1.10;;;;;;;;;;5156383;27;20045;-66
2021/11/13 06:14:12;;;;;;;2.97;0.90;;;;;;;;;;5140575;27;20030;-68
2021/11/13 06:16:38;;;;;;;2.80;1.00;;;;;;;;;;5141475;27;20022;-74
2021/11/13 06:19:04;;;;;;;5.07;1.10;;;;;;;;;;5135514;27;20035;-67
2021/11/13 06:21:30;;;;;;;3.63;1.10;;;;;;;;;;5135634;27;20049;-67
2021/11/13 06:23:56;;;;;;;5.38;1.75;;;;;;;;;;5135447;27;20031;-69
2021/11/13 06:26:22;;;;;;;6.47;1.00;;;;;;;;;;5135558;27;20019;-67
2021/11/13 06:28:48;;;;;;;4.20;1.00;;;;;;;;;;5135504;27;20019;-68
2021/11/13 06:31:14;;;;;;;4.18;1.13;;;;;;;;;;5135701;27;20015;-71
2021/11/13 06:33:40;;;;;;;3.10;0.95;;;;;;;;;;5135002;27;20103;-69
2021/11/13 06:36:06;;;;;;;2.63;0.93;;;;;;;;;;5135734;27;20479;-73
2021/11/13 06:38:33;;;;;;;5.68;1.00;;;;;;;;;;5135611;27;20035;-75
2021/11/13 06:40:59;;;;;;;5.93;1.00;;;;;;;;;;5135533;27;20023;-72
2021/11/13 06:43:25;;;;;;;2.20;0.90;;;;;;;;;;5135756;27;20386;-72
2021/11/13 06:45:50;;;;;;;4.05;0.95;;;;;;;;;;5135434;27;20030;-70
2021/11/13 06:48:17;;;;;;;3.65;0.88;;;;;;;;;;5135546;27;20020;-68
2021/11/13 06:50:46;;;;;;;3.33;1.10;;;;;;;;;;5135785;27;20015;-75
2021/11/13 06:53:12;;;;;;;6.15;1.00;;;;;;;;;;5135410;27;20041;-72
2021/11/13 06:55:38;;;;;;;2.05;0.90;;;;;;;;;;5135733;27;20054;-75
2021/11/13 06:58:04;;;;;;;4.63;1.10;;;;;;;;;;5134958;27;20111;-67
2021/11/13 07:00:30;;;;;;;4.07;0.93;;;;;;;;;;5142620;27;20489;-69
2021/11/13 07:02:59;;;;;;;4.63;1.02;;;;;;;;;;5156041;27;20022;-70
2021/11/13 07:05:26;;;;;;;2.70;0.93;;;;;;;;;;5137798;27;20054;-68
2021/11/13 07:07:52;;;;;;;6.57;0.90;;;;;;;;;;5156279;27;20022;-69
2021/11/13 07:10:19;;;;;;;6.65;1.00;;;;;;;;;;5155829;27;20029;-74
2021/11/13 07:12:45;;;;;;;3.22;1.00;;;;;;;;;;5155621;27;20019;-72
2021/11/13 07:15:12;;;;;;;4.20;0.95;;;;;;;;;;5131684;27;20027;-74
2021/11/13 07:17:38;;;;;;;3.10;0.75;;;;;;;;;;5134513;27;20016;-67
2021/11/13 07:20:04;;;;;;;3.58;0.90;;;;;;;;;;5134344;27;20482;-69
2021/11/13 07:22:30;;;;;;;5.55;0.82;;;;;;;;;;5134848;27;20023;-71
2021/11/13 07:24:56;;;;;;;2.15;0.80;;;;;;;;;;5134845;27;20410;-69
2021/11/13 07:27:22;;;;;;;4.45;0.90;;;;;;;;;;5134344;27;20016;-72
2021/11/13 07:29:59;;;;;;;5.85;1.08;;;;;;;;;;5134576;27;20103;-68
2021/11/13 07:32:25;;;;;;;1.77;0.80;;;;;;;;;;5134680;27;20025;-72
2021/11/13 07:34:51;;;;;;;4.10;0.90;;;;;;;;;;5116204;27;20031;-73
2021/11/13 07:37:17;;;;;;;7.18;1.15;;;;;;;;;;5134297;27;20788;-72
2021/11/13 07:39:43;;;;;;;2.15;0.70;;;;;;;;;;5116244;27;20038;-70
2021/11/13 07:42:09;;;;;;;2.00;1.05;;;;;;;;;;5134748;27;20032;-67
2021/11/13 07:44:36;;;;;;;1.90;0.77;;;;;;;;;;5116105;27;20072;-67
2021/11/13 07:47:02;;;;;;;4.50;0.90;;;;;;;;;;5134469;27;20030;-67
2021/11/13 07:49:28;;;;;;;5.38;0.95;;;;;;;;;;5134519;27;20090;-68
2021/11/13 07:51:54;;;;;;;1.92;0.70;;;;;;;;;;5134384;27;20027;-68
2021/11/13 07:54:20;;;;;;;2.05;0.88;;;;;;;;;;5133932;27;20107;-72
2021/11/13 07:56:46;;;;;;;4.00;0.88;;;;;;;;;;5134105;27;20072;-65
2021/11/13 07:59:13;;;;;;;3.25;0.98;;;;;;;;;;5133963;27;20038;-71
2021/11/13 08:01:40;;;;;;;2.80;0.82;;;;;;;;;;5134180;27;20020;-68
2021/11/13 08:04:06;;;;;;;2.13;0.70;;;;;;;;;;5134052;27;20466;-73
2021/11/13 08:06:32;;;;;;;1.63;0.70;;;;;;;;;;5133692;28;20026;-73
2021/11/13 08:08:58;;;;;;;3.05;0.80;;;;;;;;;;5133984;28;20527;-72
2021/11/13 08:11:24;;;;;;;3.60;0.90;;;;;;;;;;5133773;28;20028;-67
2021/11/13 08:13:50;;;;;;;3.63;0.90;;;;;;;;;;5133632;28;20030;-68
2021/11/13 08:16:16;;;;;;;1.70;0.90;;;;;;;;;;5133864;28;20031;-72
2021/11/13 08:18:42;;;;;;;3.65;0.70;;;;;;;;;;5133827;28;20105;-68
2021/11/13 08:21:08;;;;;;;3.03;0.88;;;;;;;;;;5133546;28;20059;-70
2021/11/13 08:23:34;;;;;;;1.83;0.70;;;;;;;;;;5133933;28;20073;-70
2021/11/13 08:26:01;;;;;;;2.78;0.77;;;;;;;;;;5134197;28;20031;-72
2021/11/13 08:28:27;;;;;;;2.20;0.80;;;;;;;;;;5133872;28;20088;-66
2021/11/13 08:30:53;;;;;;;1.58;0.60;;;;;;;;;;5133933;28;20432;-66
2021/11/13 08:33:19;;;;;;;4.38;0.70;;;;;;;;;;5134540;28;20023;-66
2021/11/13 08:35:46;;;;;;;5.72;1.00;;;;;;;;;;5134465;28;20027;-71
2021/11/13 08:38:13;;;;;;;3.35;0.70;;;;;;;;;;5133873;28;20035;-74
2021/11/13 08:40:40;;;;;;;2.13;0.77;;;;;;;;;;5134210;28;20474;-68
2021/11/13 08:43:06;;;;;;;0.90;0.55;;;;;;;;;;5133864;28;20026;-69
2021/11/13 08:45:32;;;;;;;6.22;0.90;;;;;;;;;;5133018;28;20020;-68
2021/11/13 08:47:58;;;;;;;2.85;0.70;;;;;;;;;;5133291;28;20027;-67
2021/11/13 08:50:26;;;;;;;2.15;0.80;;;;;;;;;;5133452;28;20455;-66
2021/11/13 08:52:54;;;;;;;1.38;0.60;;;;;;;;;;5132722;28;20427;-67
2021/11/13 08:55:21;;;;;;;1.80;0.60;;;;;;;;;;5133359;27;20045;-67
2021/11/13 08:57:47;;;;;;;1.50;0.70;;;;;;;;;;5136952;27;20030;-70
2021/11/13 09:00:14;;;;;;;2.25;0.85;;;;;;;;;;5141868;27;20014;-69
2021/11/13 09:02:40;;;;;;;2.20;0.60;;;;;;;;;;5157241;27;20099;-67
2021/11/13 09:05:07;;;;;;;1.85;0.60;;;;;;;;;;5157675;27;20035;-66
2021/11/13 09:07:33;;;;;;;1.30;0.70;;;;;;;;;;5157217;27;20386;-69
2021/11/13 09:09:59;;;;;;;1.52;0.80;;;;;;;;;;5139135;27;20412;-65
2021/11/13 09:12:27;;;;;;;1.80;0.77;;;;;;;;;;5157637;27;20469;-65
2021/11/13 09:14:54;;;;;;;4.22;0.80;;;;;;;;;;5156951;27;20022;-68
2021/11/13 09:17:21;;;;;;;2.13;0.60;;;;;;;;;;5157024;27;20064;-70
2021/11/13 09:19:47;;;;;;;2.90;0.93;;;;;;;;;;5157085;27;20050;-69
2021/11/13 09:22:13;;;;;;;0.95;0.70;;;;;;;;;;5138245;27;20373;-67
2021/11/13 09:24:39;;;;;;;2.00;0.80;;;;;;;;;;5157482;27;20023;-68
2021/11/13 09:27:06;;;;;;;1.63;0.70;;;;;;;;;;5157112;27;20474;-66
2021/11/13 09:29:32;;;;;;;2.05;0.90;;;;;;;;;;5156970;27;20384;-67
2021/11/13 09:31:58;;;;;;;1.27;0.63;;;;;;;;;;5144876;27;20489;-71
2021/11/13 09:34:24;;;;;;;1.20;0.65;;;;;;;;;;5117879;27;20042;-67
2021/11/13 09:36:50;;;;;;;3.08;0.65;;;;;;;;;;5100660;27;20019;-71
2021/11/13 09:39:17;;;;;;;2.13;0.80;;;;;;;;;;5135991;27;20031;-69
2021/11/13 09:41:43;;;;;;;0.77;0.57;;;;;;;;;;5117724;27;20043;-68
2021/11/13 09:44:09;;;;;;;3.60;0.70;;;;;;;;;;5136397;27;20027;-67
2021/11/13 09:46:36;;;;;;;3.42;0.98;;;;;;;;;;5136232;27;20031;-70
2021/11/13 09:49:03;;;;;;;2.53;0.95;;;;;;;;;;5117711;27;20019;-72
2021/11/13 09:51:30;;;;;;;2.10;0.73;;;;;;;;;;5136108;27;20011;-69
2021/11/13 09:53:56;;;;;;;2.17;0.70;;;;;;;;;;5136053;27;20019;-70
2021/11/13 09:56:23;;;;;;;1.83;0.60;;;;;;;;;;5117506;27;20118;-70
2021/11/13 09:58:49;;;;;;;2.63;0.80;;;;;;;;;;5136011;27;20035;-68
2021/11/13 10:01:15;;;;;;;2.58;0.80;;;;;;;;;;5149747;27;20458;-68
2021/11/13 10:03:43;;;;;;;3.33;0.88;;;;;;;;;;5156694;27;20018;-67
2021/11/13 10:06:13;;;;;;;2.45;0.77;;;;;;;;;;5156552;27;20022;-67
2021/11/13 10:08:39;;;;;;;2.42;0.80;;;;;;;;;;5155399;27;20111;-69
2021/11/13 10:11:12;;;;;;;2.65;0.80;;;;;;;;;;5156485;27;20105;-69
2021/11/13 10:13:39;;;;;;;3.30;0.70;;;;;;;;;;5156362;27;20048;-72
2021/11/13 10:16:06;;;;;;;1.45;0.63;;;;;;;;;;5156828;27;20508;-68
2021/11/13 10:18:34;;;;;;;2.00;0.75;;;;;;;;;;5156292;27;20031;-69
2021/11/13 10:21:03;;;;;;;1.33;0.63;;;;;;;;;;5156338;27;20061;-66
2021/11/13 10:23:29;;;;;;;2.17;0.80;;;;;;;;;;5156889;27;20023;-68
2021/11/13 10:25:59;;;;;;;2.33;0.70;;;;;;;;;;5156532;27;20031;-66
2021/11/13 10:28:26;;;;;;;0.93;0.60;;;;;;;;;;5156962;27;20224;-68
2021/11/13 10:31:04;;;;;;;2.35;0.80;;;;;;;;;;5153921;27;20037;-66
2021/11/13 10:33:31;;;;;;;4.25;0.70;;;;;;;;;;5134675;27;20026;-68
2021/11/13 10:35:57;;;;;;;1.83;0.68;;;;;;;;;;5135864;27;20047;-66
2021/11/13 10:38:23;;;;;;;1.98;0.80;;;;;;;;;;5135947;27;20440;-69
2021/11/13 10:41:09;;;;;;;1.45;0.65;;;;;;;;;;5135529;27;20037;-70
2021/11/13 10:43:39;;;;;;;1.15;0.70;;;;;;;;;;5135525;27;20096;-68
2021/11/13 10:46:10;;;;;;;1.55;0.60;;;;;;;;;;5135414;27;20462;-65
2021/11/13 10:48:44;;;;;;;1.60;0.60;;;;;;;;;;5135330;27;20031;-68
2021/11/13 10:51:12;;;;;;;3.78;0.98;;;;;;;;;;5135721;27;20023;-66
2021/11/13 10:53:39;;;;;;;1.98;0.65;;;;;;;;;;5135553;27;20051;-72
2021/11/13 10:56:14;;;;;;;2.05;0.77;;;;;;;;;;5135434;27;20019;-67
2021/11/13 10:58:53;;;;;;;1.30;0.63;;;;;;;;;;5117037;27;20027;-65
2021/11/13 11:01:25;;;;;;;2.85;0.73;;;;;;;;;;5134886;27;20466;-67
2021/11/13 11:03:52;;;;;;;1.95;0.60;;;;;;;;;;5117324;27;20035;-69
2021/11/13 11:06:22;;;;;;;3.08;0.75;;;;;;;;;;5116673;27;20023;-66
2021/11/13 11:08:48;;;;;;;1.67;0.57;;;;;;;;;;5135355;27;20069;-66
2021/11/13 11:11:44;;;;;;;1.58;0.60;;;;;;;;;;5135627;27;20011;-69
2021/11/13 11:14:11;;;;;;;2.38;0.80;;;;;;;;;;5126071;27;20050;-67
2021/11/13 11:16:42;;;;;;;1.58;0.60;;;;;;;;;;5119211;27;20034;-69
2021/11/13 11:19:08;;;;;;;1.88;0.60;;;;;;;;;;5135036;27;20177;-65
2021/11/13 11:21:51;;;;;;;1.65;0.65;;;;;;;;;;5134744;27;20619;-68
2021/11/13 11:24:17;;;;;;;;;;;;;;;;;;5135508;27;20473;-65
2021/11/13 11:26:44;;;;;;;2.53;0.70;;;;;;;;;;5134635;27;19991;-70
2021/11/13 11:29:10;;;;;;;1.65;0.65;;;;;;;;;;5134784;27;20366;-69
2021/11/13 11:31:43;;;;;;;2.53;0.70;;;;;;;;;;5135107;27;20352;-66
2021/11/13 11:34:18;;;;;;;3.22;0.68;;;;;;;;;;5135029;27;20059;-70
2021/11/13 11:36:44;;;;;;;2.45;0.75;;;;;;;;;;5134123;27;20034;-67
2021/11/13 11:39:11;;;;;;;2.00;0.68;;;;;;;;;;5116232;28;20039;-70
2021/11/13 11:41:37;;;;;;;1.65;0.52;;;;;;;;;;5134760;27;20015;-66
2021/11/13 11:44:03;;;;;;;1.77;0.73;;;;;;;;;;5134678;27;20578;-70
2021/11/13 11:46:29;;;;;;;2.72;0.70;;;;;;;;;;5134193;27;20027;-70
2021/11/13 11:48:56;;;;;;;1.50;0.80;;;;;;;;;;5134438;27;20132;-70
2021/11/13 11:51:22;;;;;;;1.10;0.63;;;;;;;;;;5134572;27;20027;-66
2021/11/13 11:53:49;;;;;;;2.92;0.88;;;;;;;;;;5136689;27;20083;-66
2021/11/13 11:56:15;;;;;;;0.85;0.70;;;;;;;;;;5135042;27;20401;-72
2021/11/13 11:58:41;;;;;;;2.15;0.70;;;;;;;;;;5134368;27;20064;-70
2021/11/13 12:01:09;;;;;;;1.90;0.70;;;;;;;;;;5147202;27;20022;-71
2021/11/13 12:03:36;;;;;;;1.60;0.65;;;;;;;;;;5155488;27;20118;-68
2021/11/13 12:06:02;;;;;;;1.50;0.70;;;;;;;;;;5154921;27;20393;-67
2021/11/13 12:08:30;;;;;;;0.90;0.50;;;;;;;;;;5154754;27;20015;-68
2021/11/13 12:11:15;;;;;;;1.77;0.70;;;;;;;;;;5154720;27;20477;-68
2021/11/13 12:13:41;;;;;;;1.08;0.60;;;;;;;;;;5154682;27;20071;-73
2021/11/13 12:16:07;;;;;;;1.45;0.55;;;;;;;;;;5141286;27;20046;-68
2021/11/13 12:18:35;;;;;;;1.25;0.70;;;;;;;;;;5134447;28;20038;-67
2021/11/13 12:21:04;;;;;;;1.85;0.57;;;;;;;;;;5133685;28;20047;-67
2021/11/13 12:23:35;;;;;;;0.70;0.50;;;;;;;;;;5116097;28;20031;-74
2021/11/13 12:26:04;;;;;;;3.90;0.80;;;;;;;;;;5134607;28;20041;-68
2021/11/13 12:28:31;;;;;;;3.40;0.82;;;;;;;;;;5134406;28;20042;-68
2021/11/13 12:31:04;;;;;;;1.02;0.60;;;;;;;;;;5135262;27;20019;-68
2021/11/13 12:33:30;;;;;;;0.80;0.50;;;;;;;;;;5120059;27;20027;-66
2021/11/13 12:35:56;;;;;;;3.42;0.80;;;;;;;;;;5119301;27;20023;-73
2021/11/13 12:38:31;;;;;;;1.30;0.70;;;;;;;;;;5138087;27;20034;-67
2021/11/13 12:41:09;;;;;;;0.73;0.50;;;;;;;;;;5137851;27;20023;-70
2021/11/13 12:43:58;;;;;;;1.05;0.52;;;;;;;;;;5138685;27;20019;-68
2021/11/13 12:46:24;;;;;;;2.78;0.63;;;;;;;;;;5137919;27;20242;-68
2021/11/13 12:48:50;;;;;;;2.33;0.60;;;;;;;;;;5138613;27;20062;-71
2021/11/13 12:51:20;;;;;;;1.15;0.40;;;;;;;;;;5119737;27;20050;-65
2021/11/13 12:53:52;;;;;;;1.52;0.47;;;;;;;;;;5138231;27;20019;-69
2021/11/13 12:56:38;;;;;;;1.45;0.80;;;;;;;;;;5138425;27;20019;-66
2021/11/13 12:59:05;;;;;;;1.20;0.60;;;;;;;;;;5109068;27;20185;-66
2021/11/13 13:01:30;;;;;;;1.77;0.60;;;;;;;;;;5137814;27;20019;-66
2021/11/13 13:04:00;;;;;;;1.90;0.70;;;;;;;;;;5137955;27;20034;-69
2021/11/13 13:06:26;;;;;;;1.45;0.52;;;;;;;;;;5137414;27;20015;-71
2021/11/13 13:09:00;;;;;;;1.08;0.55;;;;;;;;;;5137719;27;20063;-67
2021/11/13 13:11:29;;;;;;;0.93;0.55;;;;;;;;;;5137515;27;20042;-71
2021/11/13 13:13:56;;;;;;;0.60;0.40;;;;;;;;;;5137657;27;20023;-68
2021/11/13 13:16:26;;;;;;;1.88;0.60;;;;;;;;;;5137073;27;20019;-67
2021/11/13 13:18:58;;;;;;;0.98;0.60;;;;;;;;;;5137303;27;20066;-72
2021/11/13 13:21:24;;;;;;;0.60;0.45;;;;;;;;;;5137274;27;20039;-67
2021/11/13 13:23:56;;;;;;;1.13;0.45;;;;;;;;;;5139110;27;20387;-67
2021/11/13 13:26:22;;;;;;;1.75;0.65;;;;;;;;;;5137261;27;20019;-67
2021/11/13 13:28:49;;;;;;;1.77;0.60;;;;;;;;;;5136596;27;20027;-67
2021/11/13 13:31:15;;;;;;;0.85;0.50;;;;;;;;;;5136964;27;20019;-69
2021/11/13 13:33:41;;;;;;;1.00;0.50;;;;;;;;;;5136398;27;20031;-69
2021/11/13 13:36:07;;;;;;;1.00;0.60;;;;;;;;;;5136499;27;20107;-67
2021/11/13 13:38:33;;;;;;;1.13;0.60;;;;;;;;;;5136442;27;20055;-69
2021/11/13 13:41:01;;;;;;;0.50;0.50;;;;;;;;;;5136902;27;20023;-67
2021/11/13 13:43:29;;;;;;;1.08;0.60;;;;;;;;;;5136177;27;20031;-67
2021/11/13 13:45:59;;;;;;;1.25;0.68;;;;;;;;;;5136371;27;20461;-67
2021/11/13 13:48:30;;;;;;;0.70;0.60;;;;;;;;;;5136833;27;20023;-67
2021/11/13 13:50:57;;;;;;;0.73;0.50;;;;;;;;;;5136383;27;20021;-71
2021/11/13 13:53:23;;;;;;;0.60;0.50;;;;;;;;;;5136380;27;20027;-72
2021/11/13 13:55:50;;;;;;;0.95;0.55;;;;;;;;;;5136452;27;20492;-66
2021/11/13 13:58:16;;;;;;;0.77;0.40;;;;;;;;;;5135938;27;20067;-69
2021/11/13 14:00:44;;;;;;;0.75;0.50;;;;;;;;;;5145222;27;20022;-69
2021/11/13 14:03:10;;;;;;;1.27;0.47;;;;;;;;;;5156746;27;20023;-72
2021/11/13 14:05:37;;;;;;;0.90;0.60;;;;;;;;;;5156866;27;20481;-72
2021/11/13 14:08:07;;;;;;;0.88;0.50;;;;;;;;;;5156985;27;20023;-71
2021/11/13 14:10:45;;;;;;;0.57;0.50;;;;;;;;;;5157108;27;20513;-67
2021/11/13 14:13:12;;;;;;;1.98;0.55;;;;;;;;;;5156434;27;20015;-71
2021/11/13 14:15:40;;;;;;;0.82;0.50;;;;;;;;;;5145703;27;20023;-72
2021/11/13 14:18:08;;;;;;;1.00;0.50;;;;;;;;;;5136179;27;20038;-68
2021/11/13 14:20:35;;;;;;;0.98;0.60;;;;;;;;;;5136893;27;20494;-74
2021/11/13 14:23:12;;;;;;;1.40;0.60;;;;;;;;;;5136133;27;20538;-67
2021/11/13 14:25:43;;;;;;;0.40;0.40;;;;;;;;;;5135958;27;20424;-66
2021/11/13 14:28:10;;;;;;;1.70;0.50;;;;;;;;;;5136133;27;20026;-66
2021/11/13 14:30:40;;;;;;;1.27;0.70;;;;;;;;;;5136608;27;20363;-67
2021/11/13 14:33:07;;;;;;;1.15;0.50;;;;;;;;;;5134508;27;20068;-68
2021/11/13 14:35:33;;;;;;;1.77;0.45;;;;;;;;;;5135620;27;20027;-73
2021/11/13 14:37:59;;;;;;;0.65;0.40;;;;;;;;;;5135271;27;20038;-67
2021/11/13 14:40:25;;;;;;;0.40;0.40;;;;;;;;;;5134626;27;20027;-72